Terminal Aerodrome Forecast
Issued by NWS Greer, SC

Current Version | Previous Version | Text Only | Print | Product List | Glossary On
Versions: 1 2 3 4 5 6 7 8 9 10 11 12 13 14 15 16 17 18 19 20 21 22 23 24
383
FTUS42 KGSP 041549 AAB
TAFGSP
TAF AMD
KGSP 041549Z 0416/0512 35007KT P6SM SCT050
     FM041800 26008KT P6SM SCT060
     FM050000 24007KT P6SM BKN070
     FM050400 26005KT P6SM SCT050=

USA.gov is the U.S. government's official web portal to all federal, state and local government web resources and services.